sensor_id;sensor_type;location;lat;lon;timestamp;pressure;altitude;pressure_sealevel;temperature;humidity
21520;BME280;10921;53.614;9.882;2023-03-15T00:01:10;100484.63;;;3.66;80.14
21520;BME280;10921;53.614;9.882;2023-03-15T00:03:40;100486.41;;;3.65;79.65
21520;BME280;10921;53.614;9.882;2023-03-15T00:06:07;100487.47;;;3.63;79.56
21520;BME280;10921;53.614;9.882;2023-03-15T00:08:35;100483.97;;;3.62;79.85
21520;BME280;10921;53.614;9.882;2023-03-15T00:11:02;100482.38;;;3.60;79.62
21520;BME280;10921;53.614;9.882;2023-03-15T00:13:29;100497.88;;;3.51;80.23
21520;BME280;10921;53.614;9.882;2023-03-15T00:15:58;100500.09;;;3.45;80.40
21520;BME280;10921;53.614;9.882;2023-03-15T00:18:25;100512.44;;;3.44;80.59
21520;BME280;10921;53.614;9.882;2023-03-15T00:20:52;100522.66;;;3.36;81.06
21520;BME280;10921;53.614;9.882;2023-03-15T00:23:22;100514.13;;;3.33;81.18
21520;BME280;10921;53.614;9.882;2023-03-15T00:25:50;100518.34;;;3.35;81.32
21520;BME280;10921;53.614;9.882;2023-03-15T00:28:17;100509.81;;;3.32;80.96
21520;BME280;10921;53.614;9.882;2023-03-15T00:30:44;100513.19;;;3.34;80.91
21520;BME280;10921;53.614;9.882;2023-03-15T00:33:11;100522.16;;;3.31;81.10
21520;BME280;10921;53.614;9.882;2023-03-15T00:35:42;100519.91;;;3.25;81.44
21520;BME280;10921;53.614;9.882;2023-03-15T00:38:09;100525.09;;;3.27;81.30
21520;BME280;10921;53.614;9.882;2023-03-15T00:40:36;100516.00;;;3.18;81.47
21520;BME280;10921;53.614;9.882;2023-03-15T00:43:03;100530.78;;;3.21;81.58
21520;BME280;10921;53.614;9.882;2023-03-15T00:45:30;100527.31;;;3.20;81.50
21520;BME280;10921;53.614;9.882;2023-03-15T00:47:56;100533.53;;;3.19;81.68
21520;BME280;10921;53.614;9.882;2023-03-15T00:50:23;100540.69;;;3.17;81.63
21520;BME280;10921;53.614;9.882;2023-03-15T00:52:49;100538.53;;;3.09;81.51
21520;BME280;10921;53.614;9.882;2023-03-15T00:55:18;100547.09;;;3.13;82.04
21520;BME280;10921;53.614;9.882;2023-03-15T00:57:45;100543.81;;;3.09;82.48
21520;BME280;10921;53.614;9.882;2023-03-15T01:00:16;100551.91;;;3.06;82.76
21520;BME280;10921;53.614;9.882;2023-03-15T01:02:45;100559.72;;;3.08;82.62
21520;BME280;10921;53.614;9.882;2023-03-15T01:05:12;100552.66;;;3.08;82.27
21520;BME280;10921;53.614;9.882;2023-03-15T01:07:39;100548.56;;;3.04;83.28
21520;BME280;10921;53.614;9.882;2023-03-15T01:10:09;100558.78;;;3.09;82.85
21520;BME280;10921;53.614;9.882;2023-03-15T01:12:36;100543.72;;;3.11;83.53
21520;BME280;10921;53.614;9.882;2023-03-15T01:15:04;100557.63;;;3.13;83.42
21520;BME280;10921;53.614;9.882;2023-03-15T01:17:31;100562.81;;;3.14;83.26
21520;BME280;10921;53.614;9.882;2023-03-15T01:19:58;100564.31;;;3.18;83.20
21520;BME280;10921;53.614;9.882;2023-03-15T01:22:25;100561.78;;;3.17;83.04
21520;BME280;10921;53.614;9.882;2023-03-15T01:24:51;100565.56;;;3.26;83.52
21520;BME280;10921;53.614;9.882;2023-03-15T01:27:18;100571.59;;;3.28;83.05
21520;BME280;10921;53.614;9.882;2023-03-15T01:29:44;100576.69;;;3.31;83.35
21520;BME280;10921;53.614;9.882;2023-03-15T01:32:11;100581.53;;;3.37;82.93
21520;BME280;10921;53.614;9.882;2023-03-15T01:34:37;100582.28;;;3.39;82.87
21520;BME280;10921;53.614;9.882;2023-03-15T01:37:04;100578.59;;;3.41;83.05
21520;BME280;10921;53.614;9.882;2023-03-15T01:39:30;100586.41;;;3.43;82.59
21520;BME280;10921;53.614;9.882;2023-03-15T01:41:57;100582.06;;;3.42;82.99
21520;BME280;10921;53.614;9.882;2023-03-15T01:44:23;100587.34;;;3.42;82.50
21520;BME280;10921;53.614;9.882;2023-03-15T01:46:50;100578.59;;;3.41;82.45
21520;BME280;10921;53.614;9.882;2023-03-15T01:49:29;100589.25;;;3.40;83.97
21520;BME280;10921;53.614;9.882;2023-03-15T01:52:00;100612.03;;;3.41;82.91
21520;BME280;10921;53.614;9.882;2023-03-15T01:54:31;100595.16;;;3.43;83.02
21520;BME280;10921;53.614;9.882;2023-03-15T01:59:38;100605.63;;;3.45;83.27
21520;BME280;10921;53.614;9.882;2023-03-15T02:02:06;100616.25;;;3.43;83.12
21520;BME280;10921;53.614;9.882;2023-03-15T02:04:48;100607.59;;;3.41;83.79
21520;BME280;10921;53.614;9.882;2023-03-15T02:07:16;100603.81;;;3.45;82.62
21520;BME280;10921;53.614;9.882;2023-03-15T02:09:53;100608.16;;;3.46;83.85
21520;BME280;10921;53.614;9.882;2023-03-15T02:12:22;100607.59;;;3.41;83.36
21520;BME280;10921;53.614;9.882;2023-03-15T02:14:50;100603.06;;;3.43;83.20
21520;BME280;10921;53.614;9.882;2023-03-15T02:17:18;100618.72;;;3.46;83.26
21520;BME280;10921;53.614;9.882;2023-03-15T02:22:51;100622.09;;;3.48;84.69
21520;BME280;10921;53.614;9.882;2023-03-15T02:25:28;100628.22;;;3.49;84.05
21520;BME280;10921;53.614;9.882;2023-03-15T02:28:00;100633.59;;;3.47;83.91
21520;BME280;10921;53.614;9.882;2023-03-15T02:30:27;100630.84;;;3.49;83.97
21520;BME280;10921;53.614;9.882;2023-03-15T02:32:55;100613.91;;;3.39;84.39
21520;BME280;10921;53.614;9.882;2023-03-15T02:35:29;100624.94;;;3.45;84.38
21520;BME280;10921;53.614;9.882;2023-03-15T02:37:57;100631.69;;;3.49;84.31
21520;BME280;10921;53.614;9.882;2023-03-15T02:40:27;100586.25;;;3.19;84.46
21520;BME280;10921;53.614;9.882;2023-03-15T02:42:58;100636.75;;;3.52;84.63
21520;BME280;10921;53.614;9.882;2023-03-15T02:45:27;100650.69;;;3.54;84.18
21520;BME280;10921;53.614;9.882;2023-03-15T02:47:58;100642.03;;;3.52;83.73
21520;BME280;10921;53.614;9.882;2023-03-15T02:50:25;100648.16;;;3.53;84.31
21520;BME280;10921;53.614;9.882;2023-03-15T02:52:51;100658.69;;;3.53;84.20
21520;BME280;10921;53.614;9.882;2023-03-15T02:55:18;100666.63;;;3.53;84.20
21520;BME280;10921;53.614;9.882;2023-03-15T02:57:44;100668.31;;;3.54;84.22
21520;BME280;10921;53.614;9.882;2023-03-15T03:00:11;100666.50;;;3.54;83.93
21520;BME280;10921;53.614;9.882;2023-03-15T03:02:44;100674.44;;;3.54;83.92
21520;BME280;10921;53.614;9.882;2023-03-15T03:05:12;100666.50;;;3.54;84.07
21520;BME280;10921;53.614;9.882;2023-03-15T03:07:39;100645.78;;;3.36;83.88
21520;BME280;10921;53.614;9.882;2023-03-15T03:10:09;100679.91;;;3.51;83.96
21520;BME280;10921;53.614;9.882;2023-03-15T03:12:36;100675.91;;;3.46;84.43
21520;BME280;10921;53.614;9.882;2023-03-15T03:15:03;100680.13;;;3.48;83.95
21520;BME280;10921;53.614;9.882;2023-03-15T03:17:30;100691.44;;;3.50;84.40
21520;BME280;10921;53.614;9.882;2023-03-15T03:19:56;100707.25;;;3.50;84.09
21520;BME280;10921;53.614;9.882;2023-03-15T03:22:23;100716.72;;;3.53;84.40
21520;BME280;10921;53.614;9.882;2023-03-15T03:24:50;100667.75;;;3.22;83.73
21520;BME280;10921;53.614;9.882;2023-03-15T03:27:17;100712.81;;;3.46;84.22
21520;BME280;10921;53.614;9.882;2023-03-15T03:29:44;100737.56;;;3.58;84.09
21520;BME280;10921;53.614;9.882;2023-03-15T03:32:10;100742.84;;;3.58;83.75
21520;BME280;10921;53.614;9.882;2023-03-15T03:34:37;100761.19;;;3.59;83.09
21520;BME280;10921;53.614;9.882;2023-03-15T03:37:04;100756.22;;;3.54;82.87
21520;BME280;10921;53.614;9.882;2023-03-15T03:39:30;100742.22;;;3.40;83.12
21520;BME280;10921;53.614;9.882;2023-03-15T03:41:57;100755.97;;;3.45;83.07
21520;BME280;10921;53.614;9.882;2023-03-15T03:44:23;100760.78;;;3.38;82.74
21520;BME280;10921;53.614;9.882;2023-03-15T03:46:50;100711.78;;;3.07;83.22
21520;BME280;10921;53.614;9.882;2023-03-15T03:49:16;100768.25;;;3.32;83.50
21520;BME280;10921;53.614;9.882;2023-03-15T03:51:43;100771.16;;;3.27;83.71
21520;BME280;10921;53.614;9.882;2023-03-15T03:54:09;100761.41;;;3.15;83.87
21520;BME280;10921;53.614;9.882;2023-03-15T03:56:35;100776.72;;;3.23;83.60
21520;BME280;10921;53.614;9.882;2023-03-15T03:59:03;100786.31;;;3.24;83.95
21520;BME280;10921;53.614;9.882;2023-03-15T04:01:29;100770.81;;;3.19;83.70
21520;BME280;10921;53.614;9.882;2023-03-15T04:03:56;100768.09;;;3.21;84.18
21520;BME280;10921;53.614;9.882;2023-03-15T04:06:22;100757.63;;;3.19;84.12
21520;BME280;10921;53.614;9.882;2023-03-15T04:08:49;100767.44;;;3.17;83.48
21520;BME280;10921;53.614;9.882;2023-03-15T04:11:16;100718.50;;;2.85;83.82
21520;BME280;10921;53.614;9.882;2023-03-15T04:13:43;100759.53;;;3.03;83.78
21520;BME280;10921;53.614;9.882;2023-03-15T04:16:13;100774.09;;;3.08;83.71
21520;BME280;10921;53.614;9.882;2023-03-15T04:18:41;100779.38;;;3.08;83.83
21520;BME280;10921;53.614;9.882;2023-03-15T04:21:07;100790.13;;;3.05;83.71
21520;BME280;10921;53.614;9.882;2023-03-15T04:23:36;100793.13;;;2.99;83.85
21520;BME280;10921;53.614;9.882;2023-03-15T04:26:03;100804.44;;;3.01;83.71
21520;BME280;10921;53.614;9.882;2023-03-15T04:28:31;100801.72;;;2.89;83.65
21520;BME280;10921;53.614;9.882;2023-03-15T04:30:57;100801.31;;;2.80;84.03
21520;BME280;10921;53.614;9.882;2023-03-15T04:33:27;100772.31;;;2.66;84.23
21520;BME280;10921;53.614;9.882;2023-03-15T04:35:54;100837.00;;;3.00;84.72
21520;BME280;10921;53.614;9.882;2023-03-15T04:38:20;100835.31;;;2.99;84.53
21520;BME280;10921;53.614;9.882;2023-03-15T04:40:52;100848.31;;;3.02;85.26
21520;BME280;10921;53.614;9.882;2023-03-15T04:43:22;100781.06;;;2.67;85.02
21520;BME280;10921;53.614;9.882;2023-03-15T04:45:51;100832.50;;;3.02;85.51
21520;BME280;10921;53.614;9.882;2023-03-15T04:48:18;100834.28;;;3.02;84.93
21520;BME280;10921;53.614;9.882;2023-03-15T04:50:44;100828.06;;;3.03;85.11
21520;BME280;10921;53.614;9.882;2023-03-15T04:53:11;100828.25;;;3.00;85.09
21520;BME280;10921;53.614;9.882;2023-03-15T04:55:37;100825.88;;;2.95;84.46
21520;BME280;10921;53.614;9.882;2023-03-15T04:58:03;100837.28;;;2.96;84.16
21520;BME280;10921;53.614;9.882;2023-03-15T05:00:30;100842.72;;;2.93;83.80
21520;BME280;10921;53.614;9.882;2023-03-15T05:02:56;100838.69;;;2.87;84.19
21520;BME280;10921;53.614;9.882;2023-03-15T05:05:23;100814.75;;;2.62;83.75
21520;BME280;10921;53.614;9.882;2023-03-15T05:07:50;100844.59;;;2.76;84.05
21520;BME280;10921;53.614;9.882;2023-03-15T05:10:16;100873.56;;;2.76;84.16
21520;BME280;10921;53.614;9.882;2023-03-15T05:12:44;100850.25;;;2.70;83.75
21520;BME280;10921;53.614;9.882;2023-03-15T05:15:11;100868.00;;;2.67;84.02
21520;BME280;10921;53.614;9.882;2023-03-15T05:17:37;100854.91;;;2.51;83.86
21520;BME280;10921;53.614;9.882;2023-03-15T05:20:04;100872.22;;;2.55;84.09
21520;BME280;10921;53.614;9.882;2023-03-15T05:22:38;100870.09;;;2.46;84.01
21520;BME280;10921;53.614;9.882;2023-03-15T05:25:07;100800.78;;;1.86;84.06
21520;BME280;10921;53.614;9.882;2023-03-15T05:27:34;100887.81;;;2.44;84.26
21520;BME280;10921;53.614;9.882;2023-03-15T05:30:01;100896.44;;;2.46;84.41
21520;BME280;10921;53.614;9.882;2023-03-15T05:32:30;100899.28;;;2.43;84.60
21520;BME280;10921;53.614;9.882;2023-03-15T05:35:00;100901.31;;;2.38;84.89
21520;BME280;10921;53.614;9.882;2023-03-15T05:37:26;100878.91;;;2.15;84.90
21520;BME280;10921;53.614;9.882;2023-03-15T05:39:53;100906.66;;;2.36;85.62
21520;BME280;10921;53.614;9.882;2023-03-15T05:42:19;100892.34;;;2.26;86.10
21520;BME280;10921;53.614;9.882;2023-03-15T05:44:52;100910.25;;;2.35;85.62
21520;BME280;10921;53.614;9.882;2023-03-15T05:47:19;100914.50;;;2.38;86.52
21520;BME280;10921;53.614;9.882;2023-03-15T05:49:46;100915.50;;;2.35;86.76
21520;BME280;10921;53.614;9.882;2023-03-15T05:52:13;100931.13;;;2.38;86.69
21520;BME280;10921;53.614;9.882;2023-03-15T05:54:40;100932.84;;;2.39;86.52
21520;BME280;10921;53.614;9.882;2023-03-15T05:57:06;100946.00;;;2.39;87.16
21520;BME280;10921;53.614;9.882;2023-03-15T05:59:33;100918.66;;;2.26;86.99
21520;BME280;10921;53.614;9.882;2023-03-15T06:01:59;100933.34;;;2.30;86.97
21520;BME280;10921;53.614;9.882;2023-03-15T06:04:26;100949.97;;;2.46;87.53
21520;BME280;10921;53.614;9.882;2023-03-15T06:06:52;100951.09;;;2.42;87.52
21520;BME280;10921;53.614;9.882;2023-03-15T06:09:19;100967.31;;;2.51;87.92
21520;BME280;10921;53.614;9.882;2023-03-15T06:11:45;100960.25;;;2.51;87.95
21520;BME280;10921;53.614;9.882;2023-03-15T06:14:12;100952.03;;;2.41;88.38
21520;BME280;10921;53.614;9.882;2023-03-15T06:16:38;100965.34;;;2.54;88.09
21520;BME280;10921;53.614;9.882;2023-03-15T06:19:05;100981.63;;;2.61;88.29
21520;BME280;10921;53.614;9.882;2023-03-15T06:21:32;100980.53;;;2.65;88.37
21520;BME280;10921;53.614;9.882;2023-03-15T06:23:58;100973.66;;;2.62;89.13
21520;BME280;10921;53.614;9.882;2023-03-15T06:26:25;100942.66;;;2.52;89.29
21520;BME280;10921;53.614;9.882;2023-03-15T06:28:51;100977.97;;;2.79;89.49
21520;BME280;10921;53.614;9.882;2023-03-15T06:31:17;100991.63;;;2.86;89.96
21520;BME280;10921;53.614;9.882;2023-03-15T06:33:44;100978.28;;;2.89;90.47
21520;BME280;10921;53.614;9.882;2023-03-15T06:36:11;100994.41;;;2.98;90.57
21520;BME280;10921;53.614;9.882;2023-03-15T06:38:37;100992.38;;;3.03;90.92
21520;BME280;10921;53.614;9.882;2023-03-15T06:41:04;100946.25;;;2.80;91.10
21520;BME280;10921;53.614;9.882;2023-03-15T06:43:30;101001.06;;;3.20;91.15
21520;BME280;10921;53.614;9.882;2023-03-15T06:45:57;100997.13;;;3.27;90.89
21520;BME280;10921;53.614;9.882;2023-03-15T06:48:26;100996.94;;;3.30;90.63
21520;BME280;10921;53.614;9.882;2023-03-15T06:50:53;100991.41;;;3.34;90.61
21520;BME280;10921;53.614;9.882;2023-03-15T06:53:19;100989.31;;;3.39;90.71
21520;BME280;10921;53.614;9.882;2023-03-15T06:55:46;101013.28;;;3.50;90.83
21520;BME280;10921;53.614;9.882;2023-03-15T06:58:13;100999.03;;;3.53;90.68
21520;BME280;10921;53.614;9.882;2023-03-15T07:00:39;101025.06;;;3.59;90.15
21520;BME280;10921;53.614;9.882;2023-03-15T07:03:06;101025.81;;;3.61;89.96
21520;BME280;10921;53.614;9.882;2023-03-15T07:05:33;101036.66;;;3.71;89.77
21520;BME280;10921;53.614;9.882;2023-03-15T07:07:59;101029.50;;;3.73;89.21
21520;BME280;10921;53.614;9.882;2023-03-15T07:10:26;101058.44;;;3.74;88.48
21520;BME280;10921;53.614;9.882;2023-03-15T07:12:52;101065.50;;;3.74;87.91
21520;BME280;10921;53.614;9.882;2023-03-15T07:15:18;101090.09;;;3.74;87.39
21520;BME280;10921;53.614;9.882;2023-03-15T07:17:45;101043.59;;;3.43;86.95
21520;BME280;10921;53.614;9.882;2023-03-15T07:20:11;101100.00;;;3.71;86.27
21520;BME280;10921;53.614;9.882;2023-03-15T07:22:38;101101.88;;;3.69;85.91
21520;BME280;10921;53.614;9.882;2023-03-15T07:25:05;101088.13;;;3.64;85.93
21520;BME280;10921;53.614;9.882;2023-03-15T07:27:32;101090.09;;;3.60;85.95
21520;BME280;10921;53.614;9.882;2023-03-15T07:29:59;101091.19;;;3.56;86.49
21520;BME280;10921;53.614;9.882;2023-03-15T07:32:26;101084.31;;;3.53;86.66
21520;BME280;10921;53.614;9.882;2023-03-15T07:34:53;101078.28;;;3.51;86.98
21520;BME280;10921;53.614;9.882;2023-03-15T07:37:23;101070.75;;;3.45;86.77
21520;BME280;10921;53.614;9.882;2023-03-15T07:39:49;101058.91;;;3.37;87.16
21520;BME280;10921;53.614;9.882;2023-03-15T07:42:16;101096.47;;;3.56;87.19
21520;BME280;10921;53.614;9.882;2023-03-15T07:44:42;101036.38;;;3.17;87.27
21520;BME280;10921;53.614;9.882;2023-03-15T07:47:09;101057.03;;;3.39;87.81
21520;BME280;10921;53.614;9.882;2023-03-15T07:49:36;101099.44;;;3.66;87.98
21520;BME280;10921;53.614;9.882;2023-03-15T07:52:03;101085.56;;;3.62;87.66
21520;BME280;10921;53.614;9.882;2023-03-15T07:54:29;101092.84;;;3.73;88.12
21520;BME280;10921;53.614;9.882;2023-03-15T07:56:57;101101.44;;;3.76;87.76
21520;BME280;10921;53.614;9.882;2023-03-15T07:59:23;101102.19;;;3.78;87.59
21520;BME280;10921;53.614;9.882;2023-03-15T08:01:50;101106.63;;;3.78;87.71
21520;BME280;10921;53.614;9.882;2023-03-15T08:04:16;101107.00;;;3.86;88.13
21520;BME280;10921;53.614;9.882;2023-03-15T08:06:43;101073.31;;;3.61;88.06
21520;BME280;10921;53.614;9.882;2023-03-15T08:09:09;101111.84;;;3.94;88.54
21520;BME280;10921;53.614;9.882;2023-03-15T08:11:37;101122.00;;;4.00;88.31
21520;BME280;10921;53.614;9.882;2023-03-15T08:14:03;101060.72;;;3.66;88.53
21520;BME280;10921;53.614;9.882;2023-03-15T08:16:30;101128.22;;;4.13;88.71
21520;BME280;10921;53.614;9.882;2023-03-15T08:18:56;101126.16;;;4.18;88.82
21520;BME280;10921;53.614;9.882;2023-03-15T08:21:23;101136.56;;;4.21;88.06
21520;BME280;10921;53.614;9.882;2023-03-15T08:23:49;101147.69;;;4.26;88.21
21520;BME280;10921;53.614;9.882;2023-03-15T08:26:16;101144.13;;;4.27;87.51
21520;BME280;10921;53.614;9.882;2023-03-15T08:28:42;101153.06;;;4.39;87.70
21520;BME280;10921;53.614;9.882;2023-03-15T08:31:09;101112.59;;;4.24;87.04
21520;BME280;10921;53.614;9.882;2023-03-15T08:33:39;101157.03;;;4.46;86.41
21520;BME280;10921;53.614;9.882;2023-03-15T08:36:06;101162.97;;;4.49;85.35
21520;BME280;10921;53.614;9.882;2023-03-15T08:38:32;101166.94;;;4.56;85.41
21520;BME280;10921;53.614;9.882;2023-03-15T08:40:59;101155.44;;;4.57;85.06
21520;BME280;10921;53.614;9.882;2023-03-15T08:43:26;101166.94;;;4.71;84.73
21520;BME280;10921;53.614;9.882;2023-03-15T08:45:52;101105.34;;;4.42;85.75
21520;BME280;10921;53.614;9.882;2023-03-15T08:48:26;101153.88;;;4.82;84.96
21520;BME280;10921;53.614;9.882;2023-03-15T08:50:53;101176.56;;;5.13;84.84
21520;BME280;10921;53.614;9.882;2023-03-15T08:53:20;101184.19;;;5.32;83.98
21520;BME280;10921;53.614;9.882;2023-03-15T08:55:47;101181.41;;;5.60;84.63
21520;BME280;10921;53.614;9.882;2023-03-15T08:58:14;101193.97;;;5.83;81.82
21520;BME280;10921;53.614;9.882;2023-03-15T09:00:41;101192.66;;;6.03;80.35
21520;BME280;10921;53.614;9.882;2023-03-15T09:03:07;101216.81;;;6.11;77.26
21520;BME280;10921;53.614;9.882;2023-03-15T09:05:34;101213.34;;;6.11;75.75
21520;BME280;10921;53.614;9.882;2023-03-15T09:08:01;101248.59;;;5.98;74.70
21520;BME280;10921;53.614;9.882;2023-03-15T09:10:28;101232.59;;;5.73;74.28
21520;BME280;10921;53.614;9.882;2023-03-15T09:12:54;101218.19;;;5.64;74.29
21520;BME280;10921;53.614;9.882;2023-03-15T09:15:21;101224.88;;;5.43;73.91
21520;BME280;10921;53.614;9.882;2023-03-15T09:17:48;101214.38;;;5.15;74.73
21520;BME280;10921;53.614;9.882;2023-03-15T09:20:16;101214.94;;;5.06;75.64
21520;BME280;10921;53.614;9.882;2023-03-15T09:22:55;101207.34;;;4.73;77.83
21520;BME280;10921;53.614;9.882;2023-03-15T09:25:25;101221.41;;;4.73;78.53
21520;BME280;10921;53.614;9.882;2023-03-15T09:27:52;101222.91;;;4.63;79.19
21520;BME280;10921;53.614;9.882;2023-03-15T09:30:19;101221.03;;;4.65;80.92
21520;BME280;10921;53.614;9.882;2023-03-15T09:32:46;101227.75;;;4.71;82.78
21520;BME280;10921;53.614;9.882;2023-03-15T09:35:16;101162.59;;;4.55;83.76
21520;BME280;10921;53.614;9.882;2023-03-15T09:37:44;101218.81;;;5.14;84.57
21520;BME280;10921;53.614;9.882;2023-03-15T09:40:23;101230.81;;;5.47;84.64
21520;BME280;10921;53.614;9.882;2023-03-15T09:48:20;101208.06;;;6.36;81.04
21520;BME280;10921;53.614;9.882;2023-03-15T09:51:15;101233.06;;;6.83;79.91
21520;BME280;10921;53.614;9.882;2023-03-15T09:54:05;101260.34;;;6.97;76.96
21520;BME280;10921;53.614;9.882;2023-03-15T09:59:11;101264.38;;;6.78;73.28
21520;BME280;10921;53.614;9.882;2023-03-15T10:01:39;101260.97;;;6.50;73.06
21520;BME280;10921;53.614;9.882;2023-03-15T10:04:23;101246.13;;;6.22;73.74
21520;BME280;10921;53.614;9.882;2023-03-15T10:06:58;101251.81;;;6.16;74.85
21520;BME280;10921;53.614;9.882;2023-03-15T10:09:31;101234.72;;;5.81;75.05
21520;BME280;10921;53.614;9.882;2023-03-15T10:12:08;101249.56;;;5.83;75.81
21520;BME280;10921;53.614;9.882;2023-03-15T10:17:28;101258.00;;;5.63;77.81
21520;BME280;10921;53.614;9.882;2023-03-15T10:20:00;101242.50;;;5.57;78.05
21520;BME280;10921;53.614;9.882;2023-03-15T10:22:35;101257.44;;;5.58;80.00
21520;BME280;10921;53.614;9.882;2023-03-15T10:25:12;101252.28;;;5.69;80.86
21520;BME280;10921;53.614;9.882;2023-03-15T10:27:50;101252.13;;;5.85;82.12
21520;BME280;10921;53.614;9.882;2023-03-15T10:30:24;101222.72;;;5.89;82.09
21520;BME280;10921;53.614;9.882;2023-03-15T10:32:57;101233.28;;;6.16;80.99
21520;BME280;10921;53.614;9.882;2023-03-15T10:35:24;101241.75;;;6.21;78.62
21520;BME280;10921;53.614;9.882;2023-03-15T10:37:51;101227.31;;;6.13;77.44
21520;BME280;10921;53.614;9.882;2023-03-15T10:43:37;101264.78;;;6.33;77.30
21520;BME280;10921;53.614;9.882;2023-03-15T10:48:38;101259.50;;;6.59;76.81
21520;BME280;10921;53.614;9.882;2023-03-15T10:51:23;101272.88;;;6.70;75.76
21520;BME280;10921;53.614;9.882;2023-03-15T10:54:03;101242.00;;;6.56;75.36
21520;BME280;10921;53.614;9.882;2023-03-15T10:56:34;101247.63;;;6.64;75.47
21520;BME280;10921;53.614;9.882;2023-03-15T10:59:02;101269.38;;;6.82;75.24
21520;BME280;10921;53.614;9.882;2023-03-15T11:01:38;101277.84;;;7.00;75.44
21520;BME280;10921;53.614;9.882;2023-03-15T11:04:15;101281.22;;;7.15;76.63
21520;BME280;10921;53.614;9.882;2023-03-15T11:09:25;101279.09;;;7.56;73.83
21520;BME280;10921;53.614;9.882;2023-03-15T11:12:05;101283.31;;;7.83;73.07
21520;BME280;10921;53.614;9.882;2023-03-15T11:14:44;101280.06;;;8.03;71.88
21520;BME280;10921;53.614;9.882;2023-03-15T11:17:21;101288.91;;;8.15;70.50
21520;BME280;10921;53.614;9.882;2023-03-15T11:20:02;101223.47;;;7.90;71.17
21520;BME280;10921;53.614;9.882;2023-03-15T11:22:39;101306.31;;;8.42;68.47
21520;BME280;10921;53.614;9.882;2023-03-15T11:25:16;101304.66;;;8.53;67.83
21520;BME280;10921;53.614;9.882;2023-03-15T11:27:43;101304.28;;;8.57;66.34
21520;BME280;10921;53.614;9.882;2023-03-15T11:30:16;101282.44;;;8.65;65.38
21520;BME280;10921;53.614;9.882;2023-03-15T11:32:45;101289.97;;;8.82;64.80
21520;BME280;10921;53.614;9.882;2023-03-15T11:35:16;101306.66;;;8.95;64.59
21520;BME280;10921;53.614;9.882;2023-03-15T11:37:51;101319.47;;;8.90;63.07
21520;BME280;10921;53.614;9.882;2023-03-15T11:40:47;101359.28;;;8.80;63.78
21520;BME280;10921;53.614;9.882;2023-03-15T11:43:28;101363.53;;;8.48;63.34
21520;BME280;10921;53.614;9.882;2023-03-15T11:46:11;101352.44;;;8.06;64.01
21520;BME280;10921;53.614;9.882;2023-03-15T11:48:44;101339.22;;;7.57;65.85
21520;BME280;10921;53.614;9.882;2023-03-15T11:51:13;101337.13;;;7.24;66.24
21520;BME280;10921;53.614;9.882;2023-03-15T11:53:46;101349.38;;;7.01;67.60
21520;BME280;10921;53.614;9.882;2023-03-15T11:56:48;101340.34;;;6.79;67.92
21520;BME280;10921;53.614;9.882;2023-03-15T11:59:29;101316.00;;;6.34;68.79
21520;BME280;10921;53.614;9.882;2023-03-15T12:01:59;101343.66;;;6.30;69.33
21520;BME280;10921;53.614;9.882;2023-03-15T12:07:04;101352.28;;;6.07;71.57
21520;BME280;10921;53.614;9.882;2023-03-15T12:14:30;101337.28;;;6.32;75.25
21520;BME280;10921;53.614;9.882;2023-03-15T12:25:36;101339.97;;;7.34;68.09
21520;BME280;10921;53.614;9.882;2023-03-15T12:30:57;101343.81;;;7.43;62.14
21520;BME280;10921;53.614;9.882;2023-03-15T12:33:25;101344.75;;;7.41;62.01
21520;BME280;10921;53.614;9.882;2023-03-15T12:38:58;101358.25;;;7.38;62.27
21520;BME280;10921;53.614;9.882;2023-03-15T12:41:39;101350.59;;;7.47;62.87
21520;BME280;10921;53.614;9.882;2023-03-15T12:46:53;101352.22;;;7.73;59.60
21520;BME280;10921;53.614;9.882;2023-03-15T12:51:56;101354.78;;;8.35;61.19
21520;BME280;10921;53.614;9.882;2023-03-15T12:54:30;101351.94;;;8.60;61.20
21520;BME280;10921;53.614;9.882;2023-03-15T12:57:02;101347.28;;;8.86;61.00
21520;BME280;10921;53.614;9.882;2023-03-15T12:59:48;101351.81;;;9.19;60.97
21520;BME280;10921;53.614;9.882;2023-03-15T13:02:33;101356.19;;;9.42;61.00
21520;BME280;10921;53.614;9.882;2023-03-15T13:14:04;101354.22;;;10.10;56.99
21520;BME280;10921;53.614;9.882;2023-03-15T13:19:20;101354.56;;;10.28;54.94
21520;BME280;10921;53.614;9.882;2023-03-15T13:30:31;101356.56;;;10.46;53.07
21520;BME280;10921;53.614;9.882;2023-03-15T13:35:30;101355.94;;;10.54;52.24
21520;BME280;10921;53.614;9.882;2023-03-15T13:38:06;101365.44;;;10.68;52.41
21520;BME280;10921;53.614;9.882;2023-03-15T13:40:44;101323.50;;;10.58;51.40
21520;BME280;10921;53.614;9.882;2023-03-15T13:43:11;101351.31;;;10.77;49.81
21520;BME280;10921;53.614;9.882;2023-03-15T13:45:41;101361.59;;;10.81;49.57
21520;BME280;10921;53.614;9.882;2023-03-15T13:48:09;101364.41;;;10.80;49.38
21520;BME280;10921;53.614;9.882;2023-03-15T13:50:38;101358.59;;;10.75;48.74
21520;BME280;10921;53.614;9.882;2023-03-15T13:53:05;101365.75;;;10.74;49.70
21520;BME280;10921;53.614;9.882;2023-03-15T13:55:33;101356.31;;;10.70;49.69
21520;BME280;10921;53.614;9.882;2023-03-15T13:58:05;101371.09;;;10.74;48.62
21520;BME280;10921;53.614;9.882;2023-03-15T14:00:34;101361.41;;;10.73;48.68
21520;BME280;10921;53.614;9.882;2023-03-15T14:03:05;101373.13;;;10.82;49.29
21520;BME280;10921;53.614;9.882;2023-03-15T14:05:41;101368.09;;;10.88;48.91
21520;BME280;10921;53.614;9.882;2023-03-15T14:11:16;101384.28;;;11.17;50.66
21520;BME280;10921;53.614;9.882;2023-03-15T14:16:39;101365.22;;;11.22;50.57
21520;BME280;10921;53.614;9.882;2023-03-15T14:19:28;101392.56;;;11.35;49.84
21520;BME280;10921;53.614;9.882;2023-03-15T14:21:57;101394.13;;;11.38;50.32
21520;BME280;10921;53.614;9.882;2023-03-15T14:26:58;101400.44;;;11.37;49.31
21520;BME280;10921;53.614;9.882;2023-03-15T14:29:35;101392.03;;;11.41;49.64
21520;BME280;10921;53.614;9.882;2023-03-15T14:32:07;101399.63;;;11.46;49.02
21520;BME280;10921;53.614;9.882;2023-03-15T14:34:47;101395.53;;;11.42;49.23